sensor_id;sensor_type;location;lat;lon;timestamp;P1;durP1;ratioP1;P2;durP2;ratioP2
7166;SDS011;3625;51.762;14.320;2023-06-26T00:01:33;8.60;;;7.38;;
7166;SDS011;3625;51.762;14.320;2023-06-26T00:04:01;8.00;;;7.32;;
7166;SDS011;3625;51.762;14.320;2023-06-26T00:06:31;7.40;;;6.80;;
7166;SDS011;3625;51.762;14.320;2023-06-26T00:09:00;8.05;;;7.25;;
7166;SDS011;3625;51.762;14.320;2023-06-26T00:11:29;7.75;;;7.00;;
7166;SDS011;3625;51.762;14.320;2023-06-26T00:13:59;8.23;;;7.40;;
7166;SDS011;3625;51.762;14.320;2023-06-26T00:16:29;7.80;;;7.10;;
7166;SDS011;3625;51.762;14.320;2023-06-26T00:18:57;8.60;;;7.80;;
7166;SDS011;3625;51.762;14.320;2023-06-26T00:21:26;7.85;;;7.15;;
7166;SDS011;3625;51.762;14.320;2023-06-26T00:23:56;8.45;;;7.00;;
7166;SDS011;3625;51.762;14.320;2023-06-26T00:26:24;7.93;;;7.22;;
7166;SDS011;3625;51.762;14.320;2023-06-26T00:28:53;7.53;;;6.82;;
7166;SDS011;3625;51.762;14.320;2023-06-26T00:31:21;7.78;;;7.00;;
7166;SDS011;3625;51.762;14.320;2023-06-26T00:33:50;8.40;;;7.70;;
7166;SDS011;3625;51.762;14.320;2023-06-26T00:36:18;7.60;;;6.95;;
7166;SDS011;3625;51.762;14.320;2023-06-26T00:38:49;8.15;;;7.45;;
7166;SDS011;3625;51.762;14.320;2023-06-26T00:41:19;7.50;;;6.90;;
7166;SDS011;3625;51.762;14.320;2023-06-26T00:43:47;7.40;;;6.80;;
7166;SDS011;3625;51.762;14.320;2023-06-26T00:46:17;8.05;;;7.40;;
7166;SDS011;3625;51.762;14.320;2023-06-26T00:48:46;8.25;;;7.45;;
7166;SDS011;3625;51.762;14.320;2023-06-26T00:51:16;7.75;;;7.05;;
7166;SDS011;3625;51.762;14.320;2023-06-26T00:53:46;7.35;;;6.72;;
7166;SDS011;3625;51.762;14.320;2023-06-26T00:56:18;7.75;;;6.88;;
7166;SDS011;3625;51.762;14.320;2023-06-26T00:58:47;7.50;;;6.80;;
7166;SDS011;3625;51.762;14.320;2023-06-26T01:01:16;7.65;;;7.00;;
7166;SDS011;3625;51.762;14.320;2023-06-26T01:03:48;8.82;;;6.82;;
7166;SDS011;3625;51.762;14.320;2023-06-26T01:06:19;7.00;;;6.30;;
7166;SDS011;3625;51.762;14.320;2023-06-26T01:08:51;7.68;;;6.90;;
7166;SDS011;3625;51.762;14.320;2023-06-26T01:11:21;8.27;;;6.85;;
7166;SDS011;3625;51.762;14.320;2023-06-26T01:13:50;7.55;;;6.60;;
7166;SDS011;3625;51.762;14.320;2023-06-26T01:16:20;7.85;;;7.15;;
7166;SDS011;3625;51.762;14.320;2023-06-26T01:18:51;7.85;;;7.15;;
7166;SDS011;3625;51.762;14.320;2023-06-26T01:21:21;8.40;;;7.70;;
7166;SDS011;3625;51.762;14.320;2023-06-26T01:23:57;8.82;;;8.02;;
7166;SDS011;3625;51.762;14.320;2023-06-26T01:26:34;7.63;;;7.00;;
7166;SDS011;3625;51.762;14.320;2023-06-26T01:29:04;7.82;;;6.95;;
7166;SDS011;3625;51.762;14.320;2023-06-26T01:31:37;9.20;;;8.20;;
7166;SDS011;3625;51.762;14.320;2023-06-26T01:34:07;7.78;;;7.10;;
7166;SDS011;3625;51.762;14.320;2023-06-26T01:36:36;8.20;;;7.40;;
7166;SDS011;3625;51.762;14.320;2023-06-26T01:39:05;7.63;;;6.93;;
7166;SDS011;3625;51.762;14.320;2023-06-26T01:41:36;8.63;;;7.93;;
7166;SDS011;3625;51.762;14.320;2023-06-26T01:44:11;8.48;;;7.68;;
7166;SDS011;3625;51.762;14.320;2023-06-26T01:46:54;8.82;;;8.00;;
7166;SDS011;3625;51.762;14.320;2023-06-26T01:49:33;8.80;;;7.90;;
7166;SDS011;3625;51.762;14.320;2023-06-26T01:52:16;7.68;;;6.97;;
7166;SDS011;3625;51.762;14.320;2023-06-26T01:54:55;8.38;;;7.57;;
7166;SDS011;3625;51.762;14.320;2023-06-26T01:57:31;7.65;;;7.00;;
7166;SDS011;3625;51.762;14.320;2023-06-26T02:00:03;7.88;;;7.03;;
7166;SDS011;3625;51.762;14.320;2023-06-26T02:02:40;8.10;;;7.40;;
7166;SDS011;3625;51.762;14.320;2023-06-26T02:05:12;8.52;;;7.72;;
7166;SDS011;3625;51.762;14.320;2023-06-26T02:07:42;7.95;;;7.25;;
7166;SDS011;3625;51.762;14.320;2023-06-26T02:10:11;8.75;;;7.95;;
7166;SDS011;3625;51.762;14.320;2023-06-26T02:12:41;8.70;;;7.72;;
7166;SDS011;3625;51.762;14.320;2023-06-26T02:15:12;9.55;;;7.30;;
7166;SDS011;3625;51.762;14.320;2023-06-26T02:17:41;8.77;;;7.97;;
7166;SDS011;3625;51.762;14.320;2023-06-26T02:20:10;8.63;;;7.85;;
7166;SDS011;3625;51.762;14.320;2023-06-26T02:22:38;9.07;;;8.13;;
7166;SDS011;3625;51.762;14.320;2023-06-26T02:25:08;8.82;;;8.02;;
7166;SDS011;3625;51.762;14.320;2023-06-26T02:27:39;8.50;;;7.70;;
7166;SDS011;3625;51.762;14.320;2023-06-26T02:30:09;8.90;;;8.18;;
7166;SDS011;3625;51.762;14.320;2023-06-26T02:32:38;9.50;;;8.32;;
7166;SDS011;3625;51.762;14.320;2023-06-26T02:35:07;8.60;;;7.80;;
7166;SDS011;3625;51.762;14.320;2023-06-26T02:37:41;8.48;;;7.78;;
7166;SDS011;3625;51.762;14.320;2023-06-26T02:40:10;8.52;;;7.57;;
7166;SDS011;3625;51.762;14.320;2023-06-26T02:42:41;9.35;;;8.55;;
7166;SDS011;3625;51.762;14.320;2023-06-26T02:45:11;9.20;;;8.30;;
7166;SDS011;3625;51.762;14.320;2023-06-26T02:47:40;8.82;;;8.02;;
7166;SDS011;3625;51.762;14.320;2023-06-26T02:50:10;7.82;;;7.15;;
7166;SDS011;3625;51.762;14.320;2023-06-26T02:53:04;9.07;;;8.27;;
7166;SDS011;3625;51.762;14.320;2023-06-26T02:55:33;9.73;;;8.82;;
7166;SDS011;3625;51.762;14.320;2023-06-26T02:58:04;9.13;;;8.32;;
7166;SDS011;3625;51.762;14.320;2023-06-26T03:00:34;9.80;;;8.90;;
7166;SDS011;3625;51.762;14.320;2023-06-26T03:03:12;8.75;;;7.95;;
7166;SDS011;3625;51.762;14.320;2023-06-26T03:05:41;9.20;;;8.40;;
7166;SDS011;3625;51.762;14.320;2023-06-26T03:08:09;9.32;;;8.52;;
7166;SDS011;3625;51.762;14.320;2023-06-26T03:10:38;9.15;;;8.35;;
7166;SDS011;3625;51.762;14.320;2023-06-26T03:13:09;9.52;;;8.73;;
7166;SDS011;3625;51.762;14.320;2023-06-26T03:15:38;9.40;;;8.60;;
7166;SDS011;3625;51.762;14.320;2023-06-26T03:18:06;9.40;;;8.43;;
7166;SDS011;3625;51.762;14.320;2023-06-26T03:20:36;10.07;;;9.15;;
7166;SDS011;3625;51.762;14.320;2023-06-26T03:23:05;9.63;;;8.77;;
7166;SDS011;3625;51.762;14.320;2023-06-26T03:25:33;9.52;;;8.65;;
7166;SDS011;3625;51.762;14.320;2023-06-26T03:28:21;9.60;;;8.70;;
7166;SDS011;3625;51.762;14.320;2023-06-26T03:30:50;9.75;;;8.77;;
7166;SDS011;3625;51.762;14.320;2023-06-26T03:33:19;9.75;;;8.75;;
7166;SDS011;3625;51.762;14.320;2023-06-26T03:35:51;10.77;;;9.02;;
7166;SDS011;3625;51.762;14.320;2023-06-26T03:38:19;9.63;;;8.73;;
7166;SDS011;3625;51.762;14.320;2023-06-26T03:40:52;9.68;;;8.68;;
7166;SDS011;3625;51.762;14.320;2023-06-26T03:43:22;9.95;;;9.05;;
7166;SDS011;3625;51.762;14.320;2023-06-26T03:46:06;9.88;;;8.88;;
7166;SDS011;3625;51.762;14.320;2023-06-26T03:48:34;8.65;;;7.85;;
7166;SDS011;3625;51.762;14.320;2023-06-26T03:51:04;8.77;;;7.97;;
7166;SDS011;3625;51.762;14.320;2023-06-26T03:53:33;8.77;;;8.07;;
7166;SDS011;3625;51.762;14.320;2023-06-26T03:56:02;8.95;;;8.15;;
7166;SDS011;3625;51.762;14.320;2023-06-26T03:58:32;9.20;;;8.40;;
7166;SDS011;3625;51.762;14.320;2023-06-26T04:01:01;9.02;;;8.20;;
7166;SDS011;3625;51.762;14.320;2023-06-26T04:03:30;9.30;;;8.50;;
7166;SDS011;3625;51.762;14.320;2023-06-26T04:05:59;8.85;;;7.97;;
7166;SDS011;3625;51.762;14.320;2023-06-26T04:08:27;8.57;;;7.88;;
7166;SDS011;3625;51.762;14.320;2023-06-26T04:10:56;8.75;;;7.95;;
7166;SDS011;3625;51.762;14.320;2023-06-26T04:13:25;9.02;;;8.13;;
7166;SDS011;3625;51.762;14.320;2023-06-26T04:15:55;10.35;;;9.35;;
7166;SDS011;3625;51.762;14.320;2023-06-26T04:18:23;9.73;;;8.82;;
7166;SDS011;3625;51.762;14.320;2023-06-26T04:21:03;9.55;;;8.70;;
7166;SDS011;3625;51.762;14.320;2023-06-26T04:23:34;10.30;;;9.20;;
7166;SDS011;3625;51.762;14.320;2023-06-26T04:26:03;9.30;;;8.40;;
7166;SDS011;3625;51.762;14.320;2023-06-26T04:28:33;10.05;;;9.15;;
7166;SDS011;3625;51.762;14.320;2023-06-26T04:31:04;8.90;;;8.10;;
7166;SDS011;3625;51.762;14.320;2023-06-26T04:33:32;8.52;;;7.75;;
7166;SDS011;3625;51.762;14.320;2023-06-26T04:36:02;9.35;;;8.35;;
7166;SDS011;3625;51.762;14.320;2023-06-26T04:38:31;8.48;;;7.78;;
7166;SDS011;3625;51.762;14.320;2023-06-26T04:41:00;9.18;;;8.27;;
7166;SDS011;3625;51.762;14.320;2023-06-26T04:43:29;8.63;;;7.72;;
7166;SDS011;3625;51.762;14.320;2023-06-26T04:45:58;8.05;;;7.22;;
7166;SDS011;3625;51.762;14.320;2023-06-26T04:48:28;8.55;;;7.75;;
7166;SDS011;3625;51.762;14.320;2023-06-26T04:50:57;9.13;;;7.72;;
7166;SDS011;3625;51.762;14.320;2023-06-26T04:53:26;9.07;;;8.15;;
7166;SDS011;3625;51.762;14.320;2023-06-26T04:55:54;8.88;;;7.97;;
7166;SDS011;3625;51.762;14.320;2023-06-26T04:58:23;8.20;;;7.40;;
7166;SDS011;3625;51.762;14.320;2023-06-26T05:00:51;7.78;;;7.05;;
7166;SDS011;3625;51.762;14.320;2023-06-26T05:03:21;7.82;;;7.13;;
7166;SDS011;3625;51.762;14.320;2023-06-26T05:05:56;8.02;;;6.85;;
7166;SDS011;3625;51.762;14.320;2023-06-26T05:08:24;7.95;;;7.28;;
7166;SDS011;3625;51.762;14.320;2023-06-26T05:10:53;9.02;;;8.20;;
7166;SDS011;3625;51.762;14.320;2023-06-26T05:13:24;11.05;;;7.47;;
7166;SDS011;3625;51.762;14.320;2023-06-26T05:15:53;8.18;;;7.47;;
7166;SDS011;3625;51.762;14.320;2023-06-26T05:18:22;8.10;;;7.30;;
7166;SDS011;3625;51.762;14.320;2023-06-26T05:20:50;7.93;;;7.13;;
7166;SDS011;3625;51.762;14.320;2023-06-26T05:23:21;8.43;;;7.32;;
7166;SDS011;3625;51.762;14.320;2023-06-26T05:25:53;7.55;;;6.85;;
7166;SDS011;3625;51.762;14.320;2023-06-26T05:28:23;8.13;;;7.43;;
7166;SDS011;3625;51.762;14.320;2023-06-26T05:30:54;7.38;;;6.68;;
7166;SDS011;3625;51.762;14.320;2023-06-26T05:33:24;7.53;;;6.82;;
7166;SDS011;3625;51.762;14.320;2023-06-26T05:35:54;10.10;;;7.07;;
7166;SDS011;3625;51.762;14.320;2023-06-26T05:38:26;7.07;;;6.47;;
7166;SDS011;3625;51.762;14.320;2023-06-26T05:40:59;6.80;;;6.20;;
7166;SDS011;3625;51.762;14.320;2023-06-26T05:43:28;7.13;;;6.53;;
7166;SDS011;3625;51.762;14.320;2023-06-26T05:45:57;7.28;;;6.63;;
7166;SDS011;3625;51.762;14.320;2023-06-26T05:48:25;7.28;;;6.57;;
7166;SDS011;3625;51.762;14.320;2023-06-26T05:50:55;7.13;;;6.45;;
7166;SDS011;3625;51.762;14.320;2023-06-26T05:53:24;7.15;;;6.53;;
7166;SDS011;3625;51.762;14.320;2023-06-26T05:55:57;7.50;;;6.65;;
7166;SDS011;3625;51.762;14.320;2023-06-26T05:58:28;7.05;;;6.38;;
7166;SDS011;3625;51.762;14.320;2023-06-26T06:00:58;7.38;;;6.78;;
7166;SDS011;3625;51.762;14.320;2023-06-26T06:03:26;6.78;;;5.95;;
7166;SDS011;3625;51.762;14.320;2023-06-26T06:05:55;7.78;;;6.97;;
7166;SDS011;3625;51.762;14.320;2023-06-26T06:08:23;7.60;;;6.78;;
7166;SDS011;3625;51.762;14.320;2023-06-26T06:10:53;8.00;;;7.25;;
7166;SDS011;3625;51.762;14.320;2023-06-26T06:13:22;6.38;;;5.78;;
7166;SDS011;3625;51.762;14.320;2023-06-26T06:15:50;8.45;;;7.55;;
7166;SDS011;3625;51.762;14.320;2023-06-26T06:18:19;6.40;;;5.53;;
7166;SDS011;3625;51.762;14.320;2023-06-26T06:20:48;6.90;;;6.20;;
7166;SDS011;3625;51.762;14.320;2023-06-26T06:23:18;6.78;;;6.28;;
7166;SDS011;3625;51.762;14.320;2023-06-26T06:25:46;6.32;;;5.75;;
7166;SDS011;3625;51.762;14.320;2023-06-26T06:28:16;5.82;;;5.30;;
7166;SDS011;3625;51.762;14.320;2023-06-26T06:30:45;6.38;;;5.78;;
7166;SDS011;3625;51.762;14.320;2023-06-26T06:33:14;6.43;;;5.22;;
7166;SDS011;3625;51.762;14.320;2023-06-26T06:35:45;6.30;;;5.80;;
7166;SDS011;3625;51.762;14.320;2023-06-26T06:38:17;5.75;;;5.25;;
7166;SDS011;3625;51.762;14.320;2023-06-26T06:40:45;5.68;;;5.10;;
7166;SDS011;3625;51.762;14.320;2023-06-26T06:43:14;5.97;;;5.45;;
7166;SDS011;3625;51.762;14.320;2023-06-26T06:45:44;5.93;;;5.35;;
7166;SDS011;3625;51.762;14.320;2023-06-26T06:48:13;5.45;;;4.95;;
7166;SDS011;3625;51.762;14.320;2023-06-26T06:50:41;6.22;;;5.72;;
7166;SDS011;3625;51.762;14.320;2023-06-26T06:53:16;5.55;;;5.07;;
7166;SDS011;3625;51.762;14.320;2023-06-26T06:55:47;5.88;;;5.32;;
7166;SDS011;3625;51.762;14.320;2023-06-26T06:58:15;6.03;;;5.45;;
7166;SDS011;3625;51.762;14.320;2023-06-26T07:00:46;5.22;;;4.82;;
7166;SDS011;3625;51.762;14.320;2023-06-26T07:03:15;6.60;;;4.97;;
7166;SDS011;3625;51.762;14.320;2023-06-26T07:05:44;5.20;;;4.80;;
7166;SDS011;3625;51.762;14.320;2023-06-26T07:08:13;5.30;;;4.90;;
7166;SDS011;3625;51.762;14.320;2023-06-26T07:10:42;6.20;;;5.60;;
7166;SDS011;3625;51.762;14.320;2023-06-26T07:13:11;5.30;;;4.90;;
7166;SDS011;3625;51.762;14.320;2023-06-26T07:15:39;5.70;;;5.20;;
7166;SDS011;3625;51.762;14.320;2023-06-26T07:18:09;5.70;;;4.97;;
7166;SDS011;3625;51.762;14.320;2023-06-26T07:20:38;5.72;;;5.22;;
7166;SDS011;3625;51.762;14.320;2023-06-26T07:23:09;5.30;;;4.85;;
7166;SDS011;3625;51.762;14.320;2023-06-26T07:25:38;5.90;;;5.30;;
7166;SDS011;3625;51.762;14.320;2023-06-26T07:28:09;7.18;;;5.57;;
7166;SDS011;3625;51.762;14.320;2023-06-26T07:30:38;5.70;;;5.20;;
7166;SDS011;3625;51.762;14.320;2023-06-26T07:33:06;5.55;;;5.05;;
7166;SDS011;3625;51.762;14.320;2023-06-26T07:35:39;6.00;;;4.85;;
7166;SDS011;3625;51.762;14.320;2023-06-26T07:38:07;5.55;;;5.00;;
7166;SDS011;3625;51.762;14.320;2023-06-26T07:40:36;5.45;;;5.05;;
7166;SDS011;3625;51.762;14.320;2023-06-26T07:43:04;5.93;;;5.35;;
7166;SDS011;3625;51.762;14.320;2023-06-26T07:45:33;4.95;;;4.55;;
7166;SDS011;3625;51.762;14.320;2023-06-26T07:48:01;6.22;;;4.50;;
7166;SDS011;3625;51.762;14.320;2023-06-26T07:50:30;5.10;;;4.60;;
7166;SDS011;3625;51.762;14.320;2023-06-26T07:53:01;4.75;;;4.35;;
7166;SDS011;3625;51.762;14.320;2023-06-26T07:55:32;4.43;;;4.03;;
7166;SDS011;3625;51.762;14.320;2023-06-26T07:58:00;4.78;;;4.38;;
7166;SDS011;3625;51.762;14.320;2023-06-26T08:00:29;4.72;;;4.32;;
7166;SDS011;3625;51.762;14.320;2023-06-26T08:02:57;5.43;;;4.93;;
7166;SDS011;3625;51.762;14.320;2023-06-26T08:05:26;4.90;;;4.50;;
7166;SDS011;3625;51.762;14.320;2023-06-26T08:07:55;4.55;;;4.15;;
7166;SDS011;3625;51.762;14.320;2023-06-26T08:10:25;4.55;;;4.15;;
7166;SDS011;3625;51.762;14.320;2023-06-26T08:12:54;4.70;;;4.25;;
7166;SDS011;3625;51.762;14.320;2023-06-26T08:15:22;4.60;;;4.20;;
7166;SDS011;3625;51.762;14.320;2023-06-26T08:17:51;4.90;;;4.50;;
7166;SDS011;3625;51.762;14.320;2023-06-26T08:20:20;4.82;;;4.43;;
7166;SDS011;3625;51.762;14.320;2023-06-26T08:22:49;4.38;;;4.03;;
7166;SDS011;3625;51.762;14.320;2023-06-26T08:25:19;5.32;;;3.95;;
7166;SDS011;3625;51.762;14.320;2023-06-26T08:27:49;4.28;;;3.90;;
7166;SDS011;3625;51.762;14.320;2023-06-26T08:30:19;4.25;;;3.85;;
7166;SDS011;3625;51.762;14.320;2023-06-26T08:32:48;4.22;;;3.90;;
7166;SDS011;3625;51.762;14.320;2023-06-26T08:35:18;4.20;;;3.80;;
7166;SDS011;3625;51.762;14.320;2023-06-26T08:37:46;4.05;;;3.75;;
7166;SDS011;3625;51.762;14.320;2023-06-26T08:40:16;4.72;;;4.20;;
7166;SDS011;3625;51.762;14.320;2023-06-26T08:42:49;4.43;;;4.03;;
7166;SDS011;3625;51.762;14.320;2023-06-26T08:45:19;4.68;;;4.15;;
7166;SDS011;3625;51.762;14.320;2023-06-26T08:47:48;4.38;;;3.97;;
7166;SDS011;3625;51.762;14.320;2023-06-26T08:50:23;4.60;;;4.20;;
7166;SDS011;3625;51.762;14.320;2023-06-26T08:52:56;4.43;;;4.13;;
7166;SDS011;3625;51.762;14.320;2023-06-26T08:55:35;3.92;;;3.63;;
7166;SDS011;3625;51.762;14.320;2023-06-26T08:58:10;3.83;;;3.53;;
7166;SDS011;3625;51.762;14.320;2023-06-26T09:00:40;3.92;;;3.50;;
7166;SDS011;3625;51.762;14.320;2023-06-26T09:03:09;4.13;;;3.65;;
7166;SDS011;3625;51.762;14.320;2023-06-26T09:05:38;4.10;;;3.80;;
7166;SDS011;3625;51.762;14.320;2023-06-26T09:08:07;4.45;;;4.05;;
7166;SDS011;3625;51.762;14.320;2023-06-26T09:10:36;4.00;;;3.70;;
7166;SDS011;3625;51.762;14.320;2023-06-26T09:13:05;4.13;;;3.83;;
7166;SDS011;3625;51.762;14.320;2023-06-26T09:15:55;4.30;;;3.92;;
7166;SDS011;3625;51.762;14.320;2023-06-26T09:18:24;5.00;;;4.32;;
7166;SDS011;3625;51.762;14.320;2023-06-26T09:20:53;4.75;;;3.85;;
7166;SDS011;3625;51.762;14.320;2023-06-26T09:23:24;5.00;;;4.60;;
7166;SDS011;3625;51.762;14.320;2023-06-26T09:25:54;4.00;;;3.70;;
7166;SDS011;3625;51.762;14.320;2023-06-26T09:28:23;4.00;;;3.70;;
7166;SDS011;3625;51.762;14.320;2023-06-26T09:30:55;10.32;;;4.10;;
7166;SDS011;3625;51.762;14.320;2023-06-26T09:33:34;3.80;;;3.45;;
7166;SDS011;3625;51.762;14.320;2023-06-26T09:36:23;3.85;;;3.38;;
7166;SDS011;3625;51.762;14.320;2023-06-26T09:39:05;3.80;;;3.50;;
7166;SDS011;3625;51.762;14.320;2023-06-26T09:41:40;4.13;;;3.25;;
7166;SDS011;3625;51.762;14.320;2023-06-26T09:44:16;3.80;;;3.50;;
7166;SDS011;3625;51.762;14.320;2023-06-26T09:46:49;4.28;;;3.33;;
7166;SDS011;3625;51.762;14.320;2023-06-26T09:49:19;4.00;;;3.63;;
7166;SDS011;3625;51.762;14.320;2023-06-26T09:51:48;4.28;;;3.60;;
7166;SDS011;3625;51.762;14.320;2023-06-26T09:54:18;3.65;;;3.35;;
7166;SDS011;3625;51.762;14.320;2023-06-26T09:59:38;3.72;;;3.50;;
7166;SDS011;3625;51.762;14.320;2023-06-26T10:02:13;3.67;;;3.38;;
7166;SDS011;3625;51.762;14.320;2023-06-26T10:04:42;4.00;;;3.60;;
7166;SDS011;3625;51.762;14.320;2023-06-26T10:07:11;3.97;;;3.35;;
7166;SDS011;3625;51.762;14.320;2023-06-26T10:09:41;3.40;;;3.10;;
7166;SDS011;3625;51.762;14.320;2023-06-26T10:12:13;3.80;;;3.50;;
7166;SDS011;3625;51.762;14.320;2023-06-26T10:14:46;4.28;;;3.97;;
7166;SDS011;3625;51.762;14.320;2023-06-26T10:17:19;4.07;;;3.42;;
7166;SDS011;3625;51.762;14.320;2023-06-26T10:19:49;3.83;;;3.53;;
7166;SDS011;3625;51.762;14.320;2023-06-26T10:22:20;4.05;;;3.75;;
7166;SDS011;3625;51.762;14.320;2023-06-26T10:24:55;4.05;;;3.63;;
7166;SDS011;3625;51.762;14.320;2023-06-26T10:27:27;4.78;;;3.70;;
7166;SDS011;3625;51.762;14.320;2023-06-26T10:30:03;4.00;;;3.70;;
7166;SDS011;3625;51.762;14.320;2023-06-26T10:32:40;4.05;;;3.65;;
7166;SDS011;3625;51.762;14.320;2023-06-26T10:35:11;3.65;;;3.35;;
7166;SDS011;3625;51.762;14.320;2023-06-26T10:37:41;3.65;;;3.35;;
7166;SDS011;3625;51.762;14.320;2023-06-26T10:40:10;4.00;;;3.70;;
7166;SDS011;3625;51.762;14.320;2023-06-26T10:42:43;3.83;;;3.45;;
7166;SDS011;3625;51.762;14.320;2023-06-26T10:45:13;4.18;;;3.47;;
7166;SDS011;3625;51.762;14.320;2023-06-26T10:47:47;3.78;;;3.47;;
7166;SDS011;3625;51.762;14.320;2023-06-26T10:50:20;3.60;;;3.30;;
7166;SDS011;3625;51.762;14.320;2023-06-26T10:55:41;4.72;;;3.60;;
7166;SDS011;3625;51.762;14.320;2023-06-26T10:58:31;4.47;;;4.03;;
7166;SDS011;3625;51.762;14.320;2023-06-26T11:01:13;4.20;;;3.90;;
7166;SDS011;3625;51.762;14.320;2023-06-26T11:06:38;3.90;;;3.50;;
7166;SDS011;3625;51.762;14.320;2023-06-26T11:09:08;3.60;;;3.30;;
7166;SDS011;3625;51.762;14.320;2023-06-26T11:11:57;4.07;;;3.78;;
7166;SDS011;3625;51.762;14.320;2023-06-26T11:14:31;4.03;;;3.72;;
7166;SDS011;3625;51.762;14.320;2023-06-26T11:17:04;4.22;;;3.70;;
7166;SDS011;3625;51.762;14.320;2023-06-26T11:19:35;4.30;;;3.60;;
7166;SDS011;3625;51.762;14.320;2023-06-26T11:22:05;5.03;;;3.72;;
7166;SDS011;3625;51.762;14.320;2023-06-26T11:24:34;3.70;;;3.40;;
7166;SDS011;3625;51.762;14.320;2023-06-26T11:27:04;3.65;;;3.40;;
7166;SDS011;3625;51.762;14.320;2023-06-26T11:29:33;4.30;;;3.95;;
7166;SDS011;3625;51.762;14.320;2023-06-26T11:32:02;5.03;;;4.50;;
7166;SDS011;3625;51.762;14.320;2023-06-26T11:34:34;4.10;;;3.80;;
7166;SDS011;3625;51.762;14.320;2023-06-26T11:37:04;5.65;;;3.95;;
7166;SDS011;3625;51.762;14.320;2023-06-26T11:39:34;4.85;;;4.05;;
7166;SDS011;3625;51.762;14.320;2023-06-26T11:42:05;4.22;;;3.92;;
7166;SDS011;3625;51.762;14.320;2023-06-26T11:44:39;4.40;;;4.00;;
7166;SDS011;3625;51.762;14.320;2023-06-26T11:47:16;4.25;;;3.78;;
7166;SDS011;3625;51.762;14.320;2023-06-26T11:49:50;4.18;;;3.78;;
7166;SDS011;3625;51.762;14.320;2023-06-26T11:52:19;4.32;;;4.03;;
7166;SDS011;3625;51.762;14.320;2023-06-26T11:54:51;3.90;;;3.60;;
7166;SDS011;3625;51.762;14.320;2023-06-26T11:57:21;3.97;;;3.67;;
7166;SDS011;3625;51.762;14.320;2023-06-26T11:59:50;3.95;;;3.65;;
7166;SDS011;3625;51.762;14.320;2023-06-26T12:02:22;3.67;;;3.38;;
7166;SDS011;3625;51.762;14.320;2023-06-26T12:04:52;4.43;;;4.10;;
7166;SDS011;3625;51.762;14.320;2023-06-26T12:07:21;4.22;;;3.92;;
7166;SDS011;3625;51.762;14.320;2023-06-26T12:09:50;4.35;;;3.95;;
7166;SDS011;3625;51.762;14.320;2023-06-26T12:12:20;4.20;;;3.53;;
7166;SDS011;3625;51.762;14.320;2023-06-26T12:14:52;3.40;;;3.10;;
7166;SDS011;3625;51.762;14.320;2023-06-26T12:17:22;4.40;;;3.60;;
7166;SDS011;3625;51.762;14.320;2023-06-26T12:19:53;3.50;;;3.28;;
7166;SDS011;3625;51.762;14.320;2023-06-26T12:22:22;3.78;;;3.47;;
7166;SDS011;3625;51.762;14.320;2023-06-26T12:24:56;4.05;;;3.65;;
7166;SDS011;3625;51.762;14.320;2023-06-26T12:27:25;3.90;;;3.60;;
7166;SDS011;3625;51.762;14.320;2023-06-26T12:29:53;5.40;;;3.78;;
7166;SDS011;3625;51.762;14.320;2023-06-26T12:32:23;3.92;;;3.63;;
7166;SDS011;3625;51.762;14.320;2023-06-26T12:34:58;4.50;;;4.10;;
7166;SDS011;3625;51.762;14.320;2023-06-26T12:37:26;3.65;;;3.35;;
7166;SDS011;3625;51.762;14.320;2023-06-26T12:39:55;4.63;;;4.22;;
7166;SDS011;3625;51.762;14.320;2023-06-26T12:42:26;4.43;;;4.07;;
7166;SDS011;3625;51.762;14.320;2023-06-26T12:44:56;4.72;;;4.28;;
7166;SDS011;3625;51.762;14.320;2023-06-26T12:47:25;4.25;;;3.85;;
7166;SDS011;3625;51.762;14.320;2023-06-26T12:50:03;4.20;;;3.90;;
7166;SDS011;3625;51.762;14.320;2023-06-26T12:52:33;4.07;;;3.78;;
7166;SDS011;3625;51.762;14.320;2023-06-26T12:55:02;4.55;;;4.20;;
7166;SDS011;3625;51.762;14.320;2023-06-26T12:57:33;4.45;;;4.05;;
7166;SDS011;3625;51.762;14.320;2023-06-26T13:00:03;4.40;;;4.00;;
7166;SDS011;3625;51.762;14.320;2023-06-26T13:02:33;4.30;;;4.00;;
7166;SDS011;3625;51.762;14.320;2023-06-26T13:05:04;4.28;;;3.95;;
7166;SDS011;3625;51.762;14.320;2023-06-26T13:07:33;4.38;;;3.97;;
7166;SDS011;3625;51.762;14.320;2023-06-26T13:10:01;5.07;;;4.68;;
7166;SDS011;3625;51.762;14.320;2023-06-26T13:12:30;4.20;;;3.90;;
7166;SDS011;3625;51.762;14.320;2023-06-26T13:14:59;4.85;;;4.43;;
7166;SDS011;3625;51.762;14.320;2023-06-26T13:17:28;4.55;;;4.15;;
7166;SDS011;3625;51.762;14.320;2023-06-26T13:19:57;4.75;;;4.35;;
7166;SDS011;3625;51.762;14.320;2023-06-26T13:22:31;4.47;;;4.18;;
7166;SDS011;3625;51.762;14.320;2023-06-26T13:25:00;4.80;;;4.40;;
7166;SDS011;3625;51.762;14.320;2023-06-26T13:27:29;4.38;;;3.97;;
7166;SDS011;3625;51.762;14.320;2023-06-26T13:29:57;4.75;;;4.35;;
7166;SDS011;3625;51.762;14.320;2023-06-26T13:32:26;4.57;;;4.18;;
7166;SDS011;3625;51.762;14.320;2023-06-26T13:34:54;5.15;;;4.65;;
7166;SDS011;3625;51.762;14.320;2023-06-26T13:37:24;4.70;;;4.30;;
7166;SDS011;3625;51.762;14.320;2023-06-26T13:39:54;4.53;;;4.18;;
7166;SDS011;3625;51.762;14.320;2023-06-26T13:42:25;4.47;;;4.07;;
7166;SDS011;3625;51.762;14.320;2023-06-26T13:44:57;4.45;;;4.05;;
7166;SDS011;3625;51.762;14.320;2023-06-26T13:47:36;4.90;;;4.32;;
7166;SDS011;3625;51.762;14.320;2023-06-26T13:50:08;4.15;;;3.80;;
7166;SDS011;3625;51.762;14.320;2023-06-26T13:52:37;5.00;;;4.60;;
7166;SDS011;3625;51.762;14.320;2023-06-26T13:55:08;4.60;;;4.18;;
7166;SDS011;3625;51.762;14.320;2023-06-26T13:57:37;4.97;;;4.47;;
7166;SDS011;3625;51.762;14.320;2023-06-26T14:00:08;4.85;;;4.35;;
7166;SDS011;3625;51.762;14.320;2023-06-26T14:02:39;5.20;;;4.70;;
7166;SDS011;3625;51.762;14.320;2023-06-26T14:05:08;4.32;;;4.03;;
7166;SDS011;3625;51.762;14.320;2023-06-26T14:07:37;4.65;;;4.25;;
7166;SDS011;3625;51.762;14.320;2023-06-26T14:10:07;4.22;;;3.92;;
7166;SDS011;3625;51.762;14.320;2023-06-26T14:12:36;4.70;;;4.30;;
7166;SDS011;3625;51.762;14.320;2023-06-26T14:15:06;4.90;;;4.50;;
7166;SDS011;3625;51.762;14.320;2023-06-26T14:17:35;4.97;;;4.47;;
7166;SDS011;3625;51.762;14.320;2023-06-26T14:20:06;4.38;;;3.97;;
7166;SDS011;3625;51.762;14.320;2023-06-26T14:22:39;4.28;;;3.97;;
7166;SDS011;3625;51.762;14.320;2023-06-26T14:25:09;4.63;;;4.10;;
7166;SDS011;3625;51.762;14.320;2023-06-26T14:27:39;4.68;;;4.10;;
7166;SDS011;3625;51.762;14.320;2023-06-26T14:30:08;5.38;;;4.22;;
7166;SDS011;3625;51.762;14.320;2023-06-26T14:32:37;4.70;;;4.30;;
7166;SDS011;3625;51.762;14.320;2023-06-26T14:35:06;5.40;;;4.32;;
7166;SDS011;3625;51.762;14.320;2023-06-26T14:37:35;4.20;;;3.90;;
7166;SDS011;3625;51.762;14.320;2023-06-26T14:40:06;4.40;;;4.05;;
7166;SDS011;3625;51.762;14.320;2023-06-26T14:42:38;4.07;;;3.75;;
7166;SDS011;3625;51.762;14.320;2023-06-26T14:45:08;4.43;;;3.92;;
7166;SDS011;3625;51.762;14.320;2023-06-26T14:47:38;4.65;;;4.25;;
7166;SDS011;3625;51.762;14.320;2023-06-26T14:50:07;5.10;;;4.60;;
7166;SDS011;3625;51.762;14.320;2023-06-26T14:52:37;4.82;;;4.40;;
7166;SDS011;3625;51.762;14.320;2023-06-26T14:55:05;4.75;;;4.35;;
7166;SDS011;3625;51.762;14.320;2023-06-26T14:57:36;6.43;;;5.75;;
7166;SDS011;3625;51.762;14.320;2023-06-26T15:00:07;6.82;;;4.45;;
7166;SDS011;3625;51.762;14.320;2023-06-26T15:02:37;4.53;;;3.78;;
7166;SDS011;3625;51.762;14.320;2023-06-26T15:05:06;4.63;;;4.18;;
7166;SDS011;3625;51.762;14.320;2023-06-26T15:07:36;4.03;;;3.72;;
7166;SDS011;3625;51.762;14.320;2023-06-26T15:10:05;4.50;;;4.13;;
7166;SDS011;3625;51.762;14.320;2023-06-26T15:12:38;5.90;;;4.32;;
7166;SDS011;3625;51.762;14.320;2023-06-26T15:15:07;4.30;;;3.92;;
7166;SDS011;3625;51.762;14.320;2023-06-26T15:17:37;5.18;;;4.00;;
7166;SDS011;3625;51.762;14.320;2023-06-26T15:20:06;4.38;;;3.97;;
7166;SDS011;3625;51.762;14.320;2023-06-26T15:22:35;4.47;;;4.07;;
7166;SDS011;3625;51.762;14.320;2023-06-26T15:25:06;4.32;;;3.92;;
7166;SDS011;3625;51.762;14.320;2023-06-26T15:27:35;4.28;;;3.95;;
7166;SDS011;3625;51.762;14.320;2023-06-26T15:30:06;4.70;;;4.30;;